createdAt,value
2023-03-22T00:01:28.801Z,98510.69
2023-03-22T00:03:56.472Z,98512.31
2023-03-22T00:06:24.890Z,98515.91
2023-03-22T00:08:53.421Z,98508.28
2023-03-22T00:11:24.240Z,98516.09
2023-03-22T00:13:52.765Z,98503.38
2023-03-22T00:16:21.920Z,98508.81
2023-03-22T00:18:49.413Z,98505.38
2023-03-22T00:21:17.551Z,98508.81
2023-03-22T00:23:45.508Z,98507.47
2023-03-22T00:26:14.917Z,98509.53
2023-03-22T00:28:43.865Z,98502.13
2023-03-22T00:31:11.371Z,98492.34
2023-03-22T00:33:38.988Z,98504.41
2023-03-22T00:36:12.101Z,98496.38
2023-03-22T00:38:42.842Z,98495.56
2023-03-22T00:41:20.865Z,98491.16
2023-03-22T00:43:50.382Z,98492.78
2023-03-22T00:46:21.088Z,98483.78
2023-03-22T00:48:49.711Z,98483.22
2023-03-22T00:51:18.098Z,98481.44
2023-03-22T00:53:45.870Z,98484.88
2023-03-22T00:56:16.641Z,98476.03
2023-03-22T00:58:49.677Z,98479.91
2023-03-22T01:01:17.553Z,98478.72
2023-03-22T01:03:45.503Z,98478.13
2023-03-22T01:06:16.610Z,98480.72
2023-03-22T01:08:44.452Z,98472.69
2023-03-22T01:11:12.434Z,98472.88
2023-03-22T01:13:41.856Z,98471.09
2023-03-22T01:16:10.590Z,98474.84
2023-03-22T01:18:38.246Z,98475.03
2023-03-22T01:21:06.661Z,98471.63
2023-03-22T01:23:34.845Z,98466.41
2023-03-22T01:26:02.934Z,98470.81
2023-03-22T01:28:30.760Z,98470.00
2023-03-22T01:31:02.618Z,98467.38
2023-03-22T01:33:31.037Z,98467.94
2023-03-22T01:35:59.030Z,98467.13
2023-03-22T01:38:27.117Z,98471.97
2023-03-22T01:40:58.802Z,98472.44
2023-03-22T01:43:28.209Z,98468.63
2023-03-22T01:45:57.930Z,98470.09
2023-03-22T01:48:34.990Z,98466.94
2023-03-22T01:51:29.282Z,98465.13
2023-03-22T01:54:32.986Z,98463.50
2023-03-22T01:57:03.973Z,98463.13
2023-03-22T01:59:41.755Z,98456.13
2023-03-22T02:02:31.001Z,98454.16
2023-03-22T02:05:09.818Z,98449.91
2023-03-22T02:07:38.267Z,98457.91
2023-03-22T02:10:19.497Z,98456.47
2023-03-22T02:13:29.744Z,98454.88
2023-03-22T02:16:23.050Z,98454.88
2023-03-22T02:19:29.307Z,98449.66
2023-03-22T02:22:39.431Z,98450.59
2023-03-22T02:25:28.505Z,98444.56
2023-03-22T02:28:20.709Z,98458.63
2023-03-22T02:31:06.147Z,98449.19
2023-03-22T02:34:08.210Z,98452.34
2023-03-22T02:37:06.478Z,98447.50
2023-03-22T02:40:07.510Z,98444.59
2023-03-22T02:42:59.083Z,98448.19
2023-03-22T02:45:43.750Z,98457.03
2023-03-22T02:48:48.475Z,98460.00
2023-03-22T02:51:24.690Z,98462.97
2023-03-22T02:54:06.644Z,98462.16
2023-03-22T02:56:39.446Z,98457.56
2023-03-22T02:59:12.510Z,98460.81
2023-03-22T03:01:52.292Z,98469.66
2023-03-22T03:04:27.619Z,98465.84
2023-03-22T03:07:04.452Z,98469.47
2023-03-22T03:09:33.874Z,98469.66
2023-03-22T03:12:01.313Z,98472.25
2023-03-22T03:14:33.184Z,98468.00
2023-03-22T03:17:38.129Z,98471.00
2023-03-22T03:20:14.962Z,98472.97
2023-03-22T03:22:55.008Z,98461.41
2023-03-22T03:25:43.622Z,98472.06
2023-03-22T03:28:23.031Z,98464.59
2023-03-22T03:31:03.058Z,98474.22
2023-03-22T03:33:35.704Z,98468.81
2023-03-22T03:36:18.465Z,98473.84
2023-03-22T03:38:52.320Z,98469.44
2023-03-22T03:41:29.019Z,98469.63
2023-03-22T03:43:58.822Z,98481.41
2023-03-22T03:46:29.299Z,98478.72
2023-03-22T03:48:58.796Z,98482.66
2023-03-22T03:51:28.267Z,98485.78
2023-03-22T03:53:55.821Z,98476.72
2023-03-22T03:56:23.730Z,98486.50
2023-03-22T03:58:52.009Z,98474.81
2023-03-22T04:01:20.774Z,98480.38
2023-03-22T04:04:03.536Z,98490.53
2023-03-22T04:06:39.610Z,98490.09
2023-03-22T04:09:12.094Z,98497.47
2023-03-22T04:11:44.815Z,98491.44
2023-03-22T04:14:14.272Z,98491.44
2023-03-22T04:16:41.820Z,98483.59
2023-03-22T04:19:13.390Z,98493.38
2023-03-22T04:21:40.910Z,98489.34
2023-03-22T04:24:10.456Z,98491.78
2023-03-22T04:26:42.276Z,98492.25
2023-03-22T04:29:23.014Z,98494.38
2023-03-22T04:31:54.874Z,98494.91
2023-03-22T04:34:43.402Z,98504.25
2023-03-22T04:37:19.715Z,98505.13
2023-03-22T04:40:09.258Z,98500.94
2023-03-22T04:42:45.797Z,98507.31
2023-03-22T04:45:18.750Z,98506.72
2023-03-22T04:47:52.601Z,98504.53
2023-03-22T04:50:20.017Z,98510.00
2023-03-22T04:52:52.071Z,98506.63
2023-03-22T04:55:19.944Z,98509.63
2023-03-22T04:57:47.489Z,98508.38
2023-03-22T05:00:15.491Z,98519.31
2023-03-22T05:02:44.276Z,98513.09
2023-03-22T05:05:20.906Z,98529.56
2023-03-22T05:07:49.837Z,98520.72
2023-03-22T05:10:17.487Z,98524.00
2023-03-22T05:12:45.360Z,98523.28
2023-03-22T05:15:33.854Z,98526.72
2023-03-22T05:18:03.920Z,98526.28
2023-03-22T05:20:31.380Z,98518.94
2023-03-22T05:23:13.556Z,98536.03
2023-03-22T05:25:45.265Z,98524.84
2023-03-22T05:28:19.609Z,98531.31
2023-03-22T05:31:05.622Z,98533.84
2023-03-22T05:33:42.805Z,98539.78
2023-03-22T05:36:13.904Z,98549.09
2023-03-22T05:39:00.438Z,98546.09
2023-03-22T05:41:27.963Z,98550.13
2023-03-22T05:43:55.475Z,98554.31
2023-03-22T05:46:22.892Z,98553.19
2023-03-22T05:49:13.219Z,98547.69
2023-03-22T05:51:42.683Z,98537.88
2023-03-22T05:54:12.795Z,98539.22
2023-03-22T05:56:47.398Z,98547.56
2023-03-22T05:59:15.630Z,98541.63
2023-03-22T06:01:43.091Z,98547.91
2023-03-22T06:04:23.578Z,98568.34
2023-03-22T06:07:11.699Z,98566.06
2023-03-22T06:09:39.498Z,98562.56
2023-03-22T06:12:12.129Z,98545.69
2023-03-22T06:14:40.788Z,98550.19
2023-03-22T06:17:22.664Z,98544.56
2023-03-22T06:19:53.040Z,98546.41
2023-03-22T06:22:21.829Z,98542.94
2023-03-22T06:24:50.889Z,98546.97
2023-03-22T06:27:25.933Z,98537.88
2023-03-22T06:29:54.886Z,98544.03
2023-03-22T06:32:26.708Z,98547.63
2023-03-22T06:34:55.845Z,98532.84
2023-03-22T06:37:25.319Z,98543.72
2023-03-22T06:39:53.874Z,98534.94
2023-03-22T06:42:24.597Z,98523.94
2023-03-22T06:45:01.989Z,98530.16
2023-03-22T06:47:33.587Z,98535.31
2023-03-22T06:50:15.997Z,98538.09
2023-03-22T06:53:01.370Z,98534.28
2023-03-22T06:55:33.187Z,98541.25
2023-03-22T06:58:02.291Z,98542.09
2023-03-22T07:00:30.861Z,98544.13
2023-03-22T07:02:59.913Z,98542.09
2023-03-22T07:06:04.991Z,98552.91
2023-03-22T07:08:37.080Z,98552.25
2023-03-22T07:11:06.669Z,98546.38
2023-03-22T07:13:34.810Z,98543.28
2023-03-22T07:16:08.448Z,98549.72
2023-03-22T07:18:40.676Z,98545.06
2023-03-22T07:21:08.544Z,98555.84
2023-03-22T07:23:38.638Z,98562.84
2023-03-22T07:26:10.791Z,98562.06
2023-03-22T07:28:41.608Z,98545.38
2023-03-22T07:31:13.542Z,98549.84
2023-03-22T07:34:01.530Z,98552.25
2023-03-22T07:36:32.969Z,98547.00
2023-03-22T07:39:02.030Z,98540.88
2023-03-22T07:41:33.449Z,98556.84
2023-03-22T07:44:19.198Z,98553.56
2023-03-22T07:47:05.489Z,98546.03
2023-03-22T07:49:40.156Z,98546.03
2023-03-22T07:52:15.971Z,98555.81
2023-03-22T07:54:43.694Z,98552.03
2023-03-22T07:57:11.118Z,98565.31
2023-03-22T07:59:47.943Z,98567.06
2023-03-22T08:02:16.290Z,98562.47
2023-03-22T08:04:55.022Z,98556.38
2023-03-22T08:07:38.081Z,98567.13
2023-03-22T08:10:06.298Z,98553.16
2023-03-22T08:12:36.595Z,98553.16
2023-03-22T08:15:14.464Z,98567.25
2023-03-22T08:17:43.109Z,98550.16
2023-03-22T08:20:18.489Z,98562.72
2023-03-22T08:22:51.556Z,98563.25
2023-03-22T08:25:29.573Z,98555.56
2023-03-22T08:28:05.715Z,98554.97
2023-03-22T08:30:33.133Z,98561.25
2023-03-22T08:33:00.675Z,98577.97
2023-03-22T08:35:28.103Z,98587.13
2023-03-22T08:37:56.898Z,98598.13
2023-03-22T08:40:30.414Z,98602.13
2023-03-22T08:43:01.524Z,98615.56
2023-03-22T08:45:30.427Z,98606.47
2023-03-22T08:48:06.318Z,98613.69
2023-03-22T08:50:47.669Z,98618.25
2023-03-22T08:53:24.102Z,98609.50
2023-03-22T08:56:02.278Z,98611.00
2023-03-22T08:59:01.193Z,98604.81
2023-03-22T09:02:01.765Z,98614.97
2023-03-22T09:04:29.508Z,98615.88
2023-03-22T09:06:57.655Z,98615.94
2023-03-22T09:09:25.107Z,98616.34
2023-03-22T09:11:54.842Z,98609.53
2023-03-22T09:14:22.244Z,98615.34
2023-03-22T09:16:52.159Z,98615.69
2023-03-22T09:19:20.813Z,98620.75
2023-03-22T09:21:49.967Z,98619.81
2023-03-22T09:24:27.570Z,98616.44
2023-03-22T09:26:58.622Z,98609.38
2023-03-22T09:29:26.238Z,98615.47
2023-03-22T09:31:53.755Z,98604.94
2023-03-22T09:34:27.128Z,98606.38
2023-03-22T09:36:57.509Z,98612.19
2023-03-22T09:39:29.981Z,98609.59
2023-03-22T09:42:05.563Z,98607.69
2023-03-22T09:44:45.344Z,98600.25
2023-03-22T09:47:44.214Z,98601.38
2023-03-22T09:50:31.369Z,98606.47
2023-03-22T09:53:00.777Z,98605.56
2023-03-22T09:55:48.704Z,98607.09
2023-03-22T09:58:27.885Z,98601.94
2023-03-22T10:01:02.632Z,98605.75
2023-03-22T10:04:11.938Z,98597.38
2023-03-22T10:06:45.609Z,98599.19
2023-03-22T10:09:41.982Z,98598.59
2023-03-22T10:12:18.210Z,98587.84
2023-03-22T10:15:06.124Z,98576.69
2023-03-22T10:17:36.451Z,98571.53
2023-03-22T10:20:31.338Z,98572.25
2023-03-22T10:23:03.192Z,98553.53
2023-03-22T10:25:38.592Z,98562.00
2023-03-22T10:28:34.748Z,98558.84
2023-03-22T10:31:05.229Z,98572.03
2023-03-22T10:33:43.002Z,98582.84
2023-03-22T10:36:16.516Z,98582.38
2023-03-22T10:38:57.858Z,98576.22
2023-03-22T10:41:27.245Z,98586.09
2023-03-22T10:44:01.468Z,98588.22
2023-03-22T10:46:39.176Z,98584.78
2023-03-22T10:49:16.275Z,98575.94
2023-03-22T10:51:50.936Z,98585.53
2023-03-22T10:54:21.553Z,98565.81
2023-03-22T10:56:48.948Z,98547.56
2023-03-22T10:59:51.909Z,98550.22
2023-03-22T11:02:32.700Z,98550.66
2023-03-22T11:05:05.877Z,98553.16
2023-03-22T11:07:42.860Z,98557.81
2023-03-22T11:10:10.634Z,98551.22
2023-03-22T11:12:48.117Z,98546.53
2023-03-22T11:15:38.929Z,98533.88
2023-03-22T11:18:16.606Z,98538.66
2023-03-22T11:21:12.440Z,98526.91
2023-03-22T11:24:05.433Z,98520.44
2023-03-22T11:26:39.207Z,98525.53
2023-03-22T11:29:19.132Z,98531.06
2023-03-22T11:32:00.399Z,98535.47
2023-03-22T11:34:31.739Z,98524.97
2023-03-22T11:37:07.650Z,98536.03
2023-03-22T11:39:35.038Z,98530.59
2023-03-22T11:42:06.397Z,98536.84
2023-03-22T11:44:37.883Z,98546.13
2023-03-22T11:47:11.697Z,98532.09
2023-03-22T11:49:50.521Z,98521.00
2023-03-22T11:52:23.607Z,98517.53
2023-03-22T11:54:52.335Z,98523.66
2023-03-22T11:57:29.684Z,98512.09
2023-03-22T12:00:20.547Z,98505.31
2023-03-22T12:02:59.228Z,98512.53
2023-03-22T12:05:32.015Z,98514.78
2023-03-22T12:08:44.990Z,98513.09
2023-03-22T12:11:28.256Z,98514.06
2023-03-22T12:14:16.297Z,98515.94
2023-03-22T12:16:57.383Z,98508.56
2023-03-22T12:19:33.392Z,98504.16
2023-03-22T12:22:01.213Z,98508.25
2023-03-22T12:24:32.379Z,98506.97
2023-03-22T12:27:47.712Z,98508.16
2023-03-22T12:30:22.868Z,98494.75
2023-03-22T12:32:58.680Z,98491.31
2023-03-22T12:35:33.320Z,98491.25
2023-03-22T12:38:39.252Z,98493.44
2023-03-22T12:41:25.346Z,98496.88
2023-03-22T12:43:58.866Z,98492.19
2023-03-22T12:46:53.340Z,98487.59
2023-03-22T12:49:36.067Z,98495.81
2023-03-22T12:52:23.441Z,98484.06
2023-03-22T12:54:53.465Z,98483.59
2023-03-22T12:57:21.186Z,98489.03
2023-03-22T12:59:55.249Z,98478.53
2023-03-22T13:02:32.701Z,98478.38
2023-03-22T13:05:06.758Z,98478.44
2023-03-22T13:07:47.688Z,98472.97
2023-03-22T13:10:42.336Z,98478.28
2023-03-22T13:13:12.884Z,98473.22
2023-03-22T13:16:14.658Z,98471.50
2023-03-22T13:18:45.290Z,98479.13
2023-03-22T13:21:26.505Z,98479.06
2023-03-22T13:23:53.960Z,98474.41
2023-03-22T13:26:34.999Z,98469.56
2023-03-22T13:29:15.400Z,98464.00
2023-03-22T13:31:53.704Z,98467.47
2023-03-22T13:34:40.893Z,98459.47
2023-03-22T13:37:17.756Z,98458.00
2023-03-22T13:39:53.102Z,98454.19
2023-03-22T13:42:29.635Z,98468.25
2023-03-22T13:45:03.955Z,98460.88
2023-03-22T13:47:46.837Z,98465.13
2023-03-22T13:50:28.155Z,98455.59
2023-03-22T13:53:08.094Z,98462.91
2023-03-22T13:56:00.890Z,98460.94
2023-03-22T13:58:48.243Z,98461.03
2023-03-22T14:01:28.093Z,98456.53
2023-03-22T14:04:02.077Z,98456.88
2023-03-22T14:06:35.324Z,98455.75
2023-03-22T14:09:16.316Z,98456.81
2023-03-22T14:11:57.389Z,98451.31
2023-03-22T14:14:32.596Z,98450.41
2023-03-22T14:17:20.391Z,98448.50
2023-03-22T14:19:51.735Z,98444.81
